Aérodrome :
LOGIN :

S'inscrire | Disclaimer

   EN    FR    IT 

 










Légende :    VFR   VFR Marginal   IFR   IFR Intensif   IFR Très Intensif
Visi : 
Plafond : 
>= 8 km
>= 3000ft
5 à 8 km
1000 à 3000 ft
1500m à 5 km
500 à 1000 ft
800 à 1500m
200 à 500 ft
< 800m
< 200 ft
Symboles :   Orages  Brouillard  Fortes neiges  Fortes précipitations  Vent > 20 kt
SIGMETs :   Divers  Orages  Givrage  Turbulence  Onde Orograph.  Cendres Volcan.






- Altitude de l'aérodrome : 39 ft
- Code IATA : ANR


EBAW - Anvers / Antwerpen Deurne

DERNIER METAR :
  • 040220Z AUTO 11001KT CAVOK 01/M02 Q1022

METARs EXPIRÉS :
  • 040150Z AUTO 11002KT CAVOK 03/M02 Q1022
  • 040120Z AUTO 14002KT CAVOK 02/M02 Q1022
  • 040050Z AUTO 15003KT CAVOK 03/M02 Q1022
  • 040020Z AUTO VRB02KT CAVOK 06/M03 Q1022
  • 032350Z AUTO 15003KT CAVOK 03/M02 Q1022

TAF TAF EBAW
Valide du 04 à 03h jusqu'au 04 à 12h UTC


040210Z 0403/0412 14004KT CAVOK



MET'MAP, la Météo Aéronautique d'un coup d'oeil ! - Copyright ORBIFLY Décembre 2007 - Disclaimer

ORBIFLY MET'MAP TEAM :

Programmation & Développement : Alexandra Zaïnal
Sur une idée originale de : Baudouin d'Aumeries
Assistance à la programmation : Marc-Olivier Méhu
Soutien technique & logistique : Manuel Goepfert

Contact : metmap@orbifly.com




SOURCES & CREDITS :

   NOAA